Flight Track Log - Related Links

Times and Time Zones

All times are in EDT time to prevent confusion due to time zone crossing. See the JBU56 flight status page for this flight to view local times or setup timezone preferences in your user account.

Time Position Orientation Groundspeed Altitude Reporting Facility
EDT Latitude Longitude Course Direction KTS MPH feet Rate Location/Type
Thu 09:07:34 AM 38.9500 -77.5000 78° East 159 183 1,700  Level Potomac TRACON
Thu 09:08:34 AM 39.0000 -77.5333 333° Northwest 214 246 3,500 2,158 Climbing Potomac TRACON
Thu 09:09:00 AM 39.0068 -77.0792 77° East  Level FlightAware Approximate
Thu 09:09:28 AM 39.0500 -77.5667 333° Northwest 254 292 5,800  Level Potomac TRACON
Thu 09:10:00 AM 39.0229 -76.9907 77° East  Level FlightAware Approximate
Thu 09:10:28 AM 39.1167 -77.5167 30° Northeast 299 344 9,100  Level Potomac TRACON
Thu 09:11:00 AM 39.0386 -76.9019 78° East  Level FlightAware Approximate
Thu 09:11:22 AM 39.1667 -77.4333 52° Northeast 333 383 10,000  Level Potomac TRACON
Thu 09:12:00 AM 39.0534 -76.8130 78° East  Level FlightAware Approximate
Thu 09:12:22 AM 39.1500 -77.3000 99° East 349 402 10,000  Level Potomac TRACON
Thu 09:13:28 AM 39.1167 -77.1833 110° East 344 396 11,200 1,875 Climbing Potomac TRACON
Thu 09:15:02 AM 39.0761 -77.0033 106° East 368 423 15,000 2,416 Climbing Washington Center
Thu 09:16:02 AM 39.0839 -76.8672 86° East 368 423 17,400 2,132 Climbing Washington Center
Thu 09:17:03 AM 39.0978 -76.7203 83° East 378 435 19,300 2,115 Climbing Washington Center
Thu 09:18:04 AM 39.1053 -76.5678 86° East 391 450 21,700 1,835 Climbing Washington Center
Thu 09:19:04 AM 39.1292 -76.4372 77° East 396 456 23,000 655 Climbing Washington Center
Thu 09:20:03 AM 39.1428 -76.2928 83° East 396 456 23,000 50 Level Washington Center
Thu 09:21:03 AM 39.1622 -76.1322 81° East 408 470 23,100 787 Climbing Washington Center
Thu 09:22:05 AM 39.2192 -75.9961 62° Northeast 402 463 24,600 1,361 Climbing Washington Center
Thu 09:23:02 AM 39.3006 -75.8786 48° Northeast 410 472 25,800 1,220 Climbing Washington Center
Thu 09:24:03 AM 39.3842 -75.7528 49° Northeast 429 494 27,000 1,082 Climbing Washington Center
Thu 09:25:04 AM 39.4678 -75.6264 49° Northeast 450 518 28,000 1,059 Climbing Washington Center
Thu 09:26:02 AM 39.5531 -75.5000 49° Northeast 456 525 29,100 1,361 Climbing Washington Center
Thu 09:27:03 AM 39.6364 -75.3706 50° Northeast 461 531 30,700 885 Climbing Washington Center
Thu 09:28:04 AM 39.7233 -75.2408 49° Northeast 461 531 30,900 149 Climbing Washington Center
Thu 09:29:04 AM 39.8042 -75.1081 52° Northeast 489 563 31,000 31 Climbing Washington Center
Thu 09:31:19 AM 40.0206 -74.7769 49° Northeast 529 609 31,000  Level New York Center
Thu 09:32:20 AM 40.1042 -74.6461 50° Northeast 519 597 31,000  Level New York Center
Thu 09:33:18 AM 40.2114 -74.4892 48° Northeast 514 592 31,000  Level New York Center
Thu 09:34:18 AM 40.3156 -74.3558 44° Northeast 519 597 31,000  Level New York Center
Thu 09:35:19 AM 40.4053 -74.2053 52° Northeast 519 597 31,000 -98 Level New York Center
Thu 09:36:20 AM 40.4950 -74.0594 51° Northeast 519 597 30,800 -1,215 Descending New York Center
Thu 09:37:57 AM 40.6417 -73.8075 52° Northeast 520 598 27,800 -1,873 Descending Boston Center
Thu 09:38:57 AM 40.7267 -73.6614 52° Northeast 509 586 25,900 -1,700 Descending Boston Center
Thu 09:39:57 AM 40.7922 -73.5531 51° Northeast 495 570 24,400 -950 Descending Boston Center
Thu 09:40:57 AM 40.8897 -73.3928 51° Northeast 472 543 24,000 -248 Descending Boston Center
Thu 09:41:58 AM 40.9761 -73.2703 47° Northeast 462 532 23,900 -550 Descending Boston Center
Thu 09:42:57 AM 41.0644 -73.1422 48° Northeast 462 532 22,900 -1,008 Descending Boston Center
Thu 09:43:57 AM 41.1464 -73.0161 49° Northeast 462 532 21,900 -950 Descending Boston Center
Thu 09:44:57 AM 41.2219 -72.8981 50° Northeast 446 513 21,000 -450 Descending Boston Center
Thu 09:45:57 AM 41.2661 -72.7908 61° Northeast 429 494 21,000  Level Boston Center
Thu 09:46:57 AM 41.3269 -72.6253 64° Northeast 406 467 21,000  Level Boston Center
Thu 09:47:57 AM 41.3708 -72.5064 64° Northeast 399 459 21,000 -100 Level Boston Center
Thu 09:48:57 AM 41.4208 -72.3681 64° Northeast 384 442 20,800 -600 Descending Boston Center
Thu 09:49:57 AM 41.4667 -72.2433 64° Northeast 379 436 19,800 -950 Descending Boston Center
Thu 09:50:57 AM 41.5164 -72.1158 62° Northeast 374 430 18,900 -1,000 Descending Boston Center
Thu 09:51:57 AM 41.5575 -71.9961 65° Northeast 358 412 17,800 -1,200 Descending Boston Center
Thu 09:52:57 AM 41.5925 -71.8767 69° East 353 406 16,500 -1,550 Descending Boston Center
Thu 09:53:57 AM 41.6022 -71.7572 84° East 330 380 14,700 -1,545 Descending Boston Center
Thu 09:55:09 AM 41.5911 -71.6381 97° East 324 373 13,100 -1,545 Descending Boston Center
Thu 09:56:09 AM 41.6569 -71.5258 52° Northeast 296 341 11,300 -1,050 Descending Boston Center
Thu 09:57:09 AM 41.7164 -71.4333 49° Northeast 315 362 11,000 -150 Descending Boston Center
Thu 09:58:09 AM 41.7614 -71.3297 60° Northeast 321 369 11,000  Level Boston Center
Thu 09:59:09 AM 41.8000 -71.2342 62° Northeast 298 343 11,000 -400 Level Boston Center
Thu 10:00:09 AM 41.8344 -71.1444 63° Northeast 281 323 10,200 -950 Descending Boston Center
Thu 10:01:09 AM 41.8731 -71.0656 57° Northeast 258 297 9,100 -1,050 Descending Boston Center
Thu 10:02:09 AM 41.9297 -71.0894 343° North 187 215 8,100 -1,000 Descending Boston Center
Thu 10:03:09 AM 41.9556 -71.1728 293° West 212 244 7,100 -850 Descending Boston Center
Thu 10:04:09 AM 41.9917 -71.2306 310° West 221 254 6,400 -550 Descending Boston Center
Thu 10:05:09 AM 42.0328 -71.1711 47° Northeast 128 147 6,000 -350 Descending Boston Center
Thu 10:06:09 AM 42.0742 -71.1450 25° Northeast 169 194 5,700 -750 Descending Boston Center
Thu 10:07:09 AM 42.1383 -71.1131 20° North 204 235 4,500 -1,050 Descending Boston Center
Thu 10:08:09 AM 42.1839 -71.0925 18° North 192 221 3,600 -900 Descending Boston Center
Thu 10:09:09 AM 42.2233 -71.0719 21° North 159 183 2,700 -800 Descending Boston Center
Thu 10:10:09 AM 42.2606 -71.0542 19° North 143 165 2,000 -745 Descending Boston Center
Thu 10:11:34 AM 42.3167 -71.0333 15° North 138 159 900 -722 Descending KA90
Thu 10:12:22 AM 42.3500 -71.0167 20° North 135 155 400 -625 Descending KA90

Login

Don't have an account? Register now (free) for customized features, flight alerts, and more!